Arklow Rock — PBZM — position and weather

sailwx.info

Track history (hours):
 
Tides and Currents Weather Stations Pressure Air Temp Water Temp Dewpoint Dewpoint Depression Visibility Wind Speed Wind Dir Waves Ship Positions

Arklow Rock

Last reported at 2016-Sep-23 17:28 UTC. Time now 2016-Sep-25 15:45 UTC.
Position N 53°57' E 000°38'.

Length 90 m; draft 3.9 m.

Type: Cargo ship. MMSI: 246002000.

Date/timePositionNaut miles runAvg speedWind from/ knotsBaromVisibWave heightAir tempDewpointWater temp
2016-Sep-23 17:28N 53°57' E 000°38'1313.2
2016-Sep-23 16:31N 53°44' E 000°34'1011.0
2016-Sep-23 15:33N 53°35' E 000°26'13 2.2
2016-Sep-23 09:34N 53°35' E 000°03'15 5.0
2016-Sep-23 06:34N 53°45' W 000°16'0 0.0
2016-Sep-23 04:32N 53°45' W 000°16'0 0.0
2016-Sep-23 03:32N 53°45' W 000°16'0 0.0
2016-Sep-23 02:32N 53°45' W 000°16'0 0.0
2016-Sep-23 01:32N 53°45' W 000°16'0 0.0
2016-Sep-23 00:32N 53°45' W 000°16'0 0.0
2016-Sep-22 23:32N 53°45' W 000°16'0 0.0
2016-Sep-22 20:32N 53°45' W 000°16'0 0.0
2016-Sep-22 12:31N 53°45' W 000°16'0 0.0
2016-Sep-22 04:31N 53°45' W 000°16'0 0.0
2016-Sep-22 03:31N 53°45' W 000°16'0 0.0
2016-Sep-22 00:31N 53°45' W 000°16'0 0.0
2016-Sep-21 23:31N 53°45' W 000°16'0 0.0
2016-Sep-21 22:31N 53°45' W 000°16'0 0.0
2016-Sep-21 19:31N 53°45' W 000°16'0 0.0
2016-Sep-21 16:31N 53°45' W 000°16'0 0.0
2016-Sep-21 09:34N 53°45' W 000°16'0 0.0
2016-Sep-21 08:33N 53°45' W 000°16'0 0.0
2016-Sep-21 05:33N 53°45' W 000°16'0 0.0
2016-Sep-21 03:30N 53°45' W 000°16'0 0.0
2016-Sep-21 02:30N 53°45' W 000°16'0 0.0
2016-Sep-20 17:33N 53°45' W 000°16'0 0.0
2016-Sep-20 14:33N 53°45' W 000°16'0 0.0
2016-Sep-20 13:33N 53°45' W 000°16'0 0.0
2016-Sep-20 10:30N 53°45' W 000°16'0 0.0
2016-Sep-20 08:33N 53°45' W 000°16'0 0.0
2016-Sep-20 07:33N 53°45' W 000°16'0 0.0
2016-Sep-20 06:33N 53°45' W 000°16'0 0.0
2016-Sep-20 02:33N 53°45' W 000°16'0 0.0
2016-Sep-19 23:33N 53°45' W 000°16'0 0.0
2016-Sep-19 19:32N 53°45' W 000°16'0 0.0
2016-Sep-19 18:32N 53°45' W 000°16'0 0.0
2016-Sep-19 16:29N 53°45' W 000°16'0 0.0
2016-Sep-19 14:32N 53°45' W 000°16'0 0.0
2016-Sep-19 13:32N 53°45' W 000°16'0 0.0
2016-Sep-19 12:32N 53°45' W 000°16'0 0.0
2016-Sep-19 11:32N 53°45' W 000°16'0 0.0
2016-Sep-19 09:32N 53°45' W 000°16'0 0.0
2016-Sep-19 07:32N 53°45' W 000°16'0 0.0
2016-Sep-19 06:32N 53°45' W 000°16'0 0.0
2016-Sep-19 03:32N 53°45' W 000°16'0 0.0
2016-Sep-19 02:32N 53°45' W 000°16'0 0.0
2016-Sep-19 00:32N 53°45' W 000°16'0 0.0
2016-Sep-18 19:29N 53°45' W 000°16'0 0.0
2016-Sep-18 15:32N 53°45' W 000°16'0 0.0
2016-Sep-18 14:29N 53°45' W 000°16'0 0.0
2016-Sep-18 10:31N 53°45' W 000°16'0 0.0
2016-Sep-18 09:31N 53°45' W 000°16'0 0.0
2016-Sep-18 02:31N 53°45' W 000°16'0 0.0
2016-Sep-18 01:31N 53°45' W 000°16'0 0.0
2016-Sep-18 00:28N 53°45' W 000°16'0 0.0
2016-Sep-17 22:31N 53°45' W 000°16'0 0.0
2016-Sep-17 21:31N 53°45' W 000°16'0 0.0
2016-Sep-17 20:31N 53°45' W 000°16'0 0.0
2016-Sep-17 19:16N 53°45' W 000°16'0 0.0
2016-Sep-17 13:31N 53°45' W 000°16'0 0.0
2016-Sep-17 12:31N 53°45' W 000°16'0 0.0
2016-Sep-17 10:31N 53°45' W 000°16'0 0.0
2016-Sep-17 09:31N 53°45' W 000°16'0 0.0
2016-Sep-17 08:31N 53°45' W 000°16'0 0.0
2016-Sep-17 07:34N 53°45' W 000°16'0 0.0
2016-Sep-17 05:33N 53°45' W 000°16'0 0.0
2016-Sep-17 04:33N 53°45' W 000°16'0 0.0
2016-Sep-17 00:33N 53°45' W 000°16'1 0.1
2016-Sep-16 17:33N 53°44' W 000°17'18 9.0
2016-Sep-16 15:33N 53°34' E 000°07'15 4.8
2016-Sep-16 12:21N 53°31' E 000°33'19 6.6
2016-Sep-16 09:32N 53°14' E 000°45'16 7.8
2016-Sep-16 07:29N 53°05' E 001°07'34 8.5
2016-Sep-16 03:33N 52°50' E 001°56'3612.0
2016-Sep-16 00:34N 52°14' E 001°55'2411.8
2016-Sep-15 22:34N 51°51' E 001°49'10 9.5
2016-Sep-15 21:34N 51°41' E 001°49'10 9.9
2016-Sep-15 20:34N 51°32' E 001°47'18 9.0
2016-Sep-15 18:33N 51°15' E 001°38'17510.1
2016-Sep-15 01:09N 49°53' W 002°26'23 8.8
2016-Sep-14 22:34N 49°45' W 002°59'10 9.6
2016-Sep-14 21:34N 49°40' W 003°12'4510.5
2016-Sep-14 17:17N 49°17' W 004°13'143 6.8
2016-Sep-13 20:06N 46°59' W 003°16'  
Track history (hours):
 
Tides and Currents Weather Stations Pressure Air Temp Water Temp Dewpoint Dewpoint Depression Visibility Wind Speed Wind Dir Waves Ship Positions

Arklow Rock

Last reported at 2016-Sep-23 17:28 UTC. Time now 2016-Sep-25 15:45 UTC.
Position N 53°57' E 000°38'.

Length 90 m; draft 3.9 m.

Type: Cargo ship. MMSI: 246002000.

Date/timePositionNaut miles runAvg speedWind from/ knotsBaromVisibWave heightAir tempDewpointWater temp
2016-Sep-23 17:28N 53°57' E 000°38'1313.2
2016-Sep-23 16:31N 53°44' E 000°34'1011.0
2016-Sep-23 15:33N 53°35' E 000°26'13 2.2
2016-Sep-23 09:34N 53°35' E 000°03'15 5.0
2016-Sep-23 06:34N 53°45' W 000°16'0 0.0
2016-Sep-23 04:32N 53°45' W 000°16'0 0.0
2016-Sep-23 03:32N 53°45' W 000°16'0 0.0
2016-Sep-23 02:32N 53°45' W 000°16'0 0.0
2016-Sep-23 01:32N 53°45' W 000°16'0 0.0
2016-Sep-23 00:32N 53°45' W 000°16'0 0.0
2016-Sep-22 23:32N 53°45' W 000°16'0 0.0
2016-Sep-22 20:32N 53°45' W 000°16'0 0.0
2016-Sep-22 12:31N 53°45' W 000°16'0 0.0
2016-Sep-22 04:31N 53°45' W 000°16'0 0.0
2016-Sep-22 03:31N 53°45' W 000°16'0 0.0
2016-Sep-22 00:31N 53°45' W 000°16'0 0.0
2016-Sep-21 23:31N 53°45' W 000°16'0 0.0
2016-Sep-21 22:31N 53°45' W 000°16'0 0.0
2016-Sep-21 19:31N 53°45' W 000°16'0 0.0
2016-Sep-21 16:31N 53°45' W 000°16'0 0.0
2016-Sep-21 09:34N 53°45' W 000°16'0 0.0
2016-Sep-21 08:33N 53°45' W 000°16'0 0.0
2016-Sep-21 05:33N 53°45' W 000°16'0 0.0
2016-Sep-21 03:30N 53°45' W 000°16'0 0.0
2016-Sep-21 02:30N 53°45' W 000°16'0 0.0
2016-Sep-20 17:33N 53°45' W 000°16'0 0.0
2016-Sep-20 14:33N 53°45' W 000°16'0 0.0
2016-Sep-20 13:33N 53°45' W 000°16'0 0.0
2016-Sep-20 10:30N 53°45' W 000°16'0 0.0
2016-Sep-20 08:33N 53°45' W 000°16'0 0.0
2016-Sep-20 07:33N 53°45' W 000°16'0 0.0
2016-Sep-20 06:33N 53°45' W 000°16'0 0.0
2016-Sep-20 02:33N 53°45' W 000°16'0 0.0
2016-Sep-19 23:33N 53°45' W 000°16'0 0.0
2016-Sep-19 19:32N 53°45' W 000°16'0 0.0
2016-Sep-19 18:32N 53°45' W 000°16'0 0.0
2016-Sep-19 16:29N 53°45' W 000°16'0 0.0
2016-Sep-19 14:32N 53°45' W 000°16'0 0.0
2016-Sep-19 13:32N 53°45' W 000°16'0 0.0
2016-Sep-19 12:32N 53°45' W 000°16'0 0.0
2016-Sep-19 11:32N 53°45' W 000°16'0 0.0
2016-Sep-19 09:32N 53°45' W 000°16'0 0.0
2016-Sep-19 07:32N 53°45' W 000°16'0 0.0
2016-Sep-19 06:32N 53°45' W 000°16'0 0.0
2016-Sep-19 03:32N 53°45' W 000°16'0 0.0
2016-Sep-19 02:32N 53°45' W 000°16'0 0.0
2016-Sep-19 00:32N 53°45' W 000°16'0 0.0
2016-Sep-18 19:29N 53°45' W 000°16'0 0.0
2016-Sep-18 15:32N 53°45' W 000°16'0 0.0
2016-Sep-18 14:29N 53°45' W 000°16'0 0.0
2016-Sep-18 10:31N 53°45' W 000°16'0 0.0
2016-Sep-18 09:31N 53°45' W 000°16'0 0.0
2016-Sep-18 02:31N 53°45' W 000°16'0 0.0
2016-Sep-18 01:31N 53°45' W 000°16'0 0.0
2016-Sep-18 00:28N 53°45' W 000°16'0 0.0
2016-Sep-17 22:31N 53°45' W 000°16'0 0.0
2016-Sep-17 21:31N 53°45' W 000°16'0 0.0
2016-Sep-17 20:31N 53°45' W 000°16'0 0.0
2016-Sep-17 19:16N 53°45' W 000°16'0 0.0
2016-Sep-17 13:31N 53°45' W 000°16'0 0.0
2016-Sep-17 12:31N 53°45' W 000°16'0 0.0
2016-Sep-17 10:31N 53°45' W 000°16'0 0.0
2016-Sep-17 09:31N 53°45' W 000°16'0 0.0
2016-Sep-17 08:31N 53°45' W 000°16'0 0.0
2016-Sep-17 07:34N 53°45' W 000°16'0 0.0
2016-Sep-17 05:33N 53°45' W 000°16'0 0.0
2016-Sep-17 04:33N 53°45' W 000°16'0 0.0
2016-Sep-17 00:33N 53°45' W 000°16'1 0.1
2016-Sep-16 17:33N 53°44' W 000°17'18 9.0
2016-Sep-16 15:33N 53°34' E 000°07'15 4.8
2016-Sep-16 12:21N 53°31' E 000°33'19 6.6
2016-Sep-16 09:32N 53°14' E 000°45'16 7.8
2016-Sep-16 07:29N 53°05' E 001°07'34 8.5
2016-Sep-16 03:33N 52°50' E 001°56'3612.0
2016-Sep-16 00:34N 52°14' E 001°55'2411.8
2016-Sep-15 22:34N 51°51' E 001°49'10 9.5
2016-Sep-15 21:34N 51°41' E 001°49'10 9.9
2016-Sep-15 20:34N 51°32' E 001°47'18 9.0
2016-Sep-15 18:33N 51°15' E 001°38'17510.1
2016-Sep-15 01:09N 49°53' W 002°26'23 8.8
2016-Sep-14 22:34N 49°45' W 002°59'10 9.6
2016-Sep-14 21:34N 49°40' W 003°12'4510.5
2016-Sep-14 17:17N 49°17' W 004°13'143 6.8
2016-Sep-13 20:06N 46°59' W 003°16'  

Dump ship's entire track history